sensor_id;sensor_type;location;lat;lon;timestamp;P1;durP1;ratioP1;P2;durP2;ratioP2
19877;SDS011;10101;52.204;9.910;2023-07-24T00:00:03;1.43;;;1.03;;
19877;SDS011;10101;52.204;9.910;2023-07-24T00:02:31;3.30;;;1.10;;
19877;SDS011;10101;52.204;9.910;2023-07-24T00:04:58;1.10;;;0.80;;
19877;SDS011;10101;52.204;9.910;2023-07-24T00:07:26;1.00;;;0.90;;
19877;SDS011;10101;52.204;9.910;2023-07-24T00:09:53;0.80;;;0.80;;
19877;SDS011;10101;52.204;9.910;2023-07-24T00:12:20;1.07;;;1.00;;
19877;SDS011;10101;52.204;9.910;2023-07-24T00:14:47;1.10;;;1.00;;
19877;SDS011;10101;52.204;9.910;2023-07-24T00:17:14;1.33;;;1.00;;
19877;SDS011;10101;52.204;9.910;2023-07-24T00:19:41;0.87;;;0.87;;
19877;SDS011;10101;52.204;9.910;2023-07-24T00:22:07;1.23;;;1.13;;
19877;SDS011;10101;52.204;9.910;2023-07-24T00:24:35;1.20;;;1.10;;
19877;SDS011;10101;52.204;9.910;2023-07-24T00:27:02;1.10;;;1.00;;
19877;SDS011;10101;52.204;9.910;2023-07-24T00:29:29;1.67;;;1.20;;
19877;SDS011;10101;52.204;9.910;2023-07-24T00:31:56;1.30;;;1.00;;
19877;SDS011;10101;52.204;9.910;2023-07-24T00:34:23;1.43;;;0.97;;
19877;SDS011;10101;52.204;9.910;2023-07-24T00:36:49;2.37;;;1.30;;
19877;SDS011;10101;52.204;9.910;2023-07-24T00:39:16;1.30;;;1.20;;
19877;SDS011;10101;52.204;9.910;2023-07-24T00:41:44;1.53;;;1.10;;
19877;SDS011;10101;52.204;9.910;2023-07-24T00:44:11;1.73;;;0.90;;
19877;SDS011;10101;52.204;9.910;2023-07-24T00:46:38;1.33;;;1.10;;
19877;SDS011;10101;52.204;9.910;2023-07-24T00:49:05;1.27;;;1.00;;
19877;SDS011;10101;52.204;9.910;2023-07-24T00:51:31;1.30;;;1.07;;
19877;SDS011;10101;52.204;9.910;2023-07-24T00:54:00;1.33;;;1.10;;
19877;SDS011;10101;52.204;9.910;2023-07-24T00:56:27;1.20;;;1.03;;
19877;SDS011;10101;52.204;9.910;2023-07-24T00:58:56;1.73;;;1.10;;
19877;SDS011;10101;52.204;9.910;2023-07-24T01:01:23;1.10;;;1.00;;
19877;SDS011;10101;52.204;9.910;2023-07-24T01:03:51;1.23;;;1.13;;
19877;SDS011;10101;52.204;9.910;2023-07-24T01:06:18;0.90;;;0.90;;
19877;SDS011;10101;52.204;9.910;2023-07-24T01:08:45;3.80;;;1.50;;
19877;SDS011;10101;52.204;9.910;2023-07-24T01:11:14;1.77;;;1.13;;
19877;SDS011;10101;52.204;9.910;2023-07-24T01:13:44;1.40;;;1.30;;
19877;SDS011;10101;52.204;9.910;2023-07-24T01:16:19;1.40;;;1.10;;
19877;SDS011;10101;52.204;9.910;2023-07-24T01:18:48;1.87;;;1.00;;
19877;SDS011;10101;52.204;9.910;2023-07-24T01:21:20;1.50;;;1.17;;
19877;SDS011;10101;52.204;9.910;2023-07-24T01:23:58;1.60;;;1.30;;
19877;SDS011;10101;52.204;9.910;2023-07-24T01:26:30;1.43;;;1.13;;
19877;SDS011;10101;52.204;9.910;2023-07-24T01:28:57;1.40;;;1.30;;
19877;SDS011;10101;52.204;9.910;2023-07-24T01:31:24;1.83;;;1.33;;
19877;SDS011;10101;52.204;9.910;2023-07-24T01:33:51;3.13;;;1.43;;
19877;SDS011;10101;52.204;9.910;2023-07-24T01:36:18;1.73;;;1.40;;
19877;SDS011;10101;52.204;9.910;2023-07-24T01:38:45;1.50;;;1.30;;
19877;SDS011;10101;52.204;9.910;2023-07-24T01:41:13;3.07;;;1.63;;
19877;SDS011;10101;52.204;9.910;2023-07-24T01:43:41;1.43;;;1.33;;
19877;SDS011;10101;52.204;9.910;2023-07-24T01:46:09;1.90;;;1.23;;
19877;SDS011;10101;52.204;9.910;2023-07-24T01:48:35;1.73;;;1.40;;
19877;SDS011;10101;52.204;9.910;2023-07-24T01:51:02;1.40;;;1.30;;
19877;SDS011;10101;52.204;9.910;2023-07-24T01:53:29;2.30;;;1.60;;
19877;SDS011;10101;52.204;9.910;2023-07-24T01:55:55;1.60;;;1.37;;
19877;SDS011;10101;52.204;9.910;2023-07-24T01:58:23;1.37;;;1.27;;
19877;SDS011;10101;52.204;9.910;2023-07-24T02:00:54;1.80;;;1.40;;
19877;SDS011;10101;52.204;9.910;2023-07-24T02:03:21;1.70;;;1.33;;
19877;SDS011;10101;52.204;9.910;2023-07-24T02:05:49;1.50;;;1.40;;
19877;SDS011;10101;52.204;9.910;2023-07-24T02:08:16;1.50;;;1.37;;
19877;SDS011;10101;52.204;9.910;2023-07-24T02:10:43;2.10;;;1.47;;
19877;SDS011;10101;52.204;9.910;2023-07-24T02:13:09;3.20;;;1.30;;
19877;SDS011;10101;52.204;9.910;2023-07-24T02:15:36;1.47;;;1.30;;
19877;SDS011;10101;52.204;9.910;2023-07-24T02:18:04;1.40;;;1.30;;
19877;SDS011;10101;52.204;9.910;2023-07-24T02:20:31;2.13;;;1.50;;
19877;SDS011;10101;52.204;9.910;2023-07-24T02:22:58;1.60;;;1.30;;
19877;SDS011;10101;52.204;9.910;2023-07-24T02:25:24;1.67;;;1.40;;
19877;SDS011;10101;52.204;9.910;2023-07-24T02:27:51;1.60;;;1.30;;
19877;SDS011;10101;52.204;9.910;2023-07-24T02:30:18;1.50;;;1.30;;
19877;SDS011;10101;52.204;9.910;2023-07-24T02:32:44;1.30;;;1.20;;
19877;SDS011;10101;52.204;9.910;2023-07-24T02:35:13;2.03;;;1.50;;
19877;SDS011;10101;52.204;9.910;2023-07-24T02:37:40;1.50;;;1.40;;
19877;SDS011;10101;52.204;9.910;2023-07-24T02:40:07;1.83;;;1.47;;
19877;SDS011;10101;52.204;9.910;2023-07-24T02:42:34;1.67;;;1.50;;
19877;SDS011;10101;52.204;9.910;2023-07-24T02:45:01;1.30;;;1.20;;
19877;SDS011;10101;52.204;9.910;2023-07-24T02:47:28;1.70;;;1.33;;
19877;SDS011;10101;52.204;9.910;2023-07-24T02:49:55;1.63;;;1.53;;
19877;SDS011;10101;52.204;9.910;2023-07-24T02:52:23;1.70;;;1.43;;
19877;SDS011;10101;52.204;9.910;2023-07-24T02:54:50;1.53;;;1.20;;
19877;SDS011;10101;52.204;9.910;2023-07-24T02:57:17;2.43;;;1.50;;
19877;SDS011;10101;52.204;9.910;2023-07-24T02:59:43;1.30;;;1.20;;
19877;SDS011;10101;52.204;9.910;2023-07-24T03:02:10;1.40;;;1.30;;
19877;SDS011;10101;52.204;9.910;2023-07-24T03:04:37;1.80;;;1.40;;
19877;SDS011;10101;52.204;9.910;2023-07-24T03:07:04;1.20;;;1.10;;
19877;SDS011;10101;52.204;9.910;2023-07-24T03:09:32;1.73;;;1.43;;
19877;SDS011;10101;52.204;9.910;2023-07-24T03:11:58;1.60;;;1.50;;
19877;SDS011;10101;52.204;9.910;2023-07-24T03:14:25;3.73;;;1.40;;
19877;SDS011;10101;52.204;9.910;2023-07-24T03:16:52;1.80;;;1.50;;
19877;SDS011;10101;52.204;9.910;2023-07-24T03:19:19;1.40;;;1.30;;
19877;SDS011;10101;52.204;9.910;2023-07-24T03:21:45;1.73;;;1.47;;
19877;SDS011;10101;52.204;9.910;2023-07-24T03:24:12;1.23;;;1.10;;
19877;SDS011;10101;52.204;9.910;2023-07-24T03:26:40;1.93;;;1.37;;
19877;SDS011;10101;52.204;9.910;2023-07-24T03:29:07;1.70;;;1.40;;
19877;SDS011;10101;52.204;9.910;2023-07-24T03:31:34;1.40;;;1.30;;
19877;SDS011;10101;52.204;9.910;2023-07-24T03:34:01;1.57;;;1.37;;
19877;SDS011;10101;52.204;9.910;2023-07-24T03:36:27;1.30;;;1.20;;
19877;SDS011;10101;52.204;9.910;2023-07-24T03:38:54;3.10;;;1.40;;
19877;SDS011;10101;52.204;9.910;2023-07-24T03:41:21;1.97;;;1.33;;
19877;SDS011;10101;52.204;9.910;2023-07-24T03:43:49;1.40;;;1.30;;
19877;SDS011;10101;52.204;9.910;2023-07-24T03:46:16;1.77;;;1.27;;
19877;SDS011;10101;52.204;9.910;2023-07-24T03:48:42;2.00;;;1.40;;
19877;SDS011;10101;52.204;9.910;2023-07-24T03:51:09;1.77;;;1.53;;
19877;SDS011;10101;52.204;9.910;2023-07-24T03:53:36;3.27;;;1.30;;
19877;SDS011;10101;52.204;9.910;2023-07-24T03:56:02;2.47;;;1.53;;
19877;SDS011;10101;52.204;9.910;2023-07-24T03:58:29;2.87;;;1.60;;
19877;SDS011;10101;52.204;9.910;2023-07-24T04:00:58;2.73;;;1.43;;
19877;SDS011;10101;52.204;9.910;2023-07-24T04:03:24;1.73;;;1.43;;
19877;SDS011;10101;52.204;9.910;2023-07-24T04:05:51;1.30;;;1.20;;
19877;SDS011;10101;52.204;9.910;2023-07-24T04:08:18;2.67;;;1.40;;
19877;SDS011;10101;52.204;9.910;2023-07-24T04:10:45;2.33;;;1.50;;
19877;SDS011;10101;52.204;9.910;2023-07-24T04:13:11;1.40;;;1.30;;
19877;SDS011;10101;52.204;9.910;2023-07-24T04:15:38;1.47;;;1.27;;
19877;SDS011;10101;52.204;9.910;2023-07-24T04:18:06;2.17;;;1.60;;
19877;SDS011;10101;52.204;9.910;2023-07-24T04:20:33;2.07;;;1.30;;
19877;SDS011;10101;52.204;9.910;2023-07-24T04:23:00;2.13;;;1.40;;
19877;SDS011;10101;52.204;9.910;2023-07-24T04:25:27;2.23;;;1.37;;
19877;SDS011;10101;52.204;9.910;2023-07-24T04:27:53;2.77;;;1.50;;
19877;SDS011;10101;52.204;9.910;2023-07-24T04:30:20;2.23;;;1.10;;
19877;SDS011;10101;52.204;9.910;2023-07-24T04:32:47;2.10;;;1.20;;
19877;SDS011;10101;52.204;9.910;2023-07-24T04:35:16;3.17;;;1.80;;
19877;SDS011;10101;52.204;9.910;2023-07-24T04:37:43;1.83;;;1.40;;
19877;SDS011;10101;52.204;9.910;2023-07-24T04:40:10;2.10;;;1.20;;
19877;SDS011;10101;52.204;9.910;2023-07-24T04:42:37;1.80;;;1.40;;
19877;SDS011;10101;52.204;9.910;2023-07-24T04:45:04;1.30;;;1.20;;
19877;SDS011;10101;52.204;9.910;2023-07-24T04:47:32;2.07;;;1.50;;
19877;SDS011;10101;52.204;9.910;2023-07-24T04:49:58;1.50;;;1.20;;
19877;SDS011;10101;52.204;9.910;2023-07-24T04:52:27;2.43;;;1.40;;
19877;SDS011;10101;52.204;9.910;2023-07-24T04:54:53;1.67;;;1.40;;
19877;SDS011;10101;52.204;9.910;2023-07-24T04:57:20;1.53;;;1.40;;
19877;SDS011;10101;52.204;9.910;2023-07-24T04:59:47;1.63;;;1.47;;
19877;SDS011;10101;52.204;9.910;2023-07-24T05:02:13;1.37;;;1.20;;
19877;SDS011;10101;52.204;9.910;2023-07-24T05:04:40;2.10;;;1.20;;
19877;SDS011;10101;52.204;9.910;2023-07-24T05:07:07;1.33;;;1.23;;
19877;SDS011;10101;52.204;9.910;2023-07-24T05:09:35;1.30;;;1.20;;
19877;SDS011;10101;52.204;9.910;2023-07-24T05:12:02;1.50;;;1.40;;
19877;SDS011;10101;52.204;9.910;2023-07-24T05:14:30;3.47;;;1.40;;
19877;SDS011;10101;52.204;9.910;2023-07-24T05:16:56;1.77;;;1.50;;
19877;SDS011;10101;52.204;9.910;2023-07-24T05:19:23;3.17;;;1.40;;
19877;SDS011;10101;52.204;9.910;2023-07-24T05:21:50;2.67;;;1.20;;
19877;SDS011;10101;52.204;9.910;2023-07-24T05:24:16;1.37;;;1.27;;
19877;SDS011;10101;52.204;9.910;2023-07-24T05:26:44;2.00;;;1.30;;
19877;SDS011;10101;52.204;9.910;2023-07-24T05:29:11;1.70;;;1.60;;
19877;SDS011;10101;52.204;9.910;2023-07-24T05:31:38;1.57;;;1.40;;
19877;SDS011;10101;52.204;9.910;2023-07-24T05:34:05;2.07;;;1.23;;
19877;SDS011;10101;52.204;9.910;2023-07-24T05:36:32;1.53;;;1.37;;
19877;SDS011;10101;52.204;9.910;2023-07-24T05:38:58;2.23;;;1.30;;
19877;SDS011;10101;52.204;9.910;2023-07-24T05:41:25;1.93;;;1.30;;
19877;SDS011;10101;52.204;9.910;2023-07-24T05:43:53;2.20;;;1.27;;
19877;SDS011;10101;52.204;9.910;2023-07-24T05:46:20;1.53;;;1.40;;
19877;SDS011;10101;52.204;9.910;2023-07-24T05:48:47;2.13;;;1.67;;
19877;SDS011;10101;52.204;9.910;2023-07-24T05:51:14;5.70;;;1.80;;
19877;SDS011;10101;52.204;9.910;2023-07-24T05:53:41;4.80;;;1.33;;
19877;SDS011;10101;52.204;9.910;2023-07-24T05:56:07;2.20;;;1.50;;
19877;SDS011;10101;52.204;9.910;2023-07-24T05:58:34;3.77;;;1.40;;
19877;SDS011;10101;52.204;9.910;2023-07-24T06:01:02;2.33;;;1.20;;
19877;SDS011;10101;52.204;9.910;2023-07-24T06:03:29;2.13;;;1.40;;
19877;SDS011;10101;52.204;9.910;2023-07-24T06:05:57;3.43;;;1.47;;
19877;SDS011;10101;52.204;9.910;2023-07-24T06:08:23;4.90;;;1.53;;
19877;SDS011;10101;52.204;9.910;2023-07-24T06:10:50;5.57;;;1.80;;
19877;SDS011;10101;52.204;9.910;2023-07-24T06:13:17;3.90;;;1.77;;
19877;SDS011;10101;52.204;9.910;2023-07-24T06:15:46;2.10;;;1.60;;
19877;SDS011;10101;52.204;9.910;2023-07-24T06:18:14;3.33;;;1.80;;
19877;SDS011;10101;52.204;9.910;2023-07-24T06:20:41;1.90;;;1.60;;
19877;SDS011;10101;52.204;9.910;2023-07-24T06:23:08;3.57;;;1.40;;
19877;SDS011;10101;52.204;9.910;2023-07-24T06:25:35;1.77;;;1.47;;
19877;SDS011;10101;52.204;9.910;2023-07-24T06:28:02;2.63;;;1.70;;
19877;SDS011;10101;52.204;9.910;2023-07-24T06:30:29;3.20;;;1.50;;
19877;SDS011;10101;52.204;9.910;2023-07-24T06:32:55;3.30;;;1.63;;
19877;SDS011;10101;52.204;9.910;2023-07-24T06:35:23;3.10;;;1.53;;
19877;SDS011;10101;52.204;9.910;2023-07-24T06:37:50;3.30;;;2.00;;
19877;SDS011;10101;52.204;9.910;2023-07-24T06:40:17;2.53;;;1.67;;
19877;SDS011;10101;52.204;9.910;2023-07-24T06:42:44;3.00;;;2.07;;
19877;SDS011;10101;52.204;9.910;2023-07-24T06:45:11;2.20;;;1.70;;
19877;SDS011;10101;52.204;9.910;2023-07-24T06:47:38;3.87;;;1.40;;
19877;SDS011;10101;52.204;9.910;2023-07-24T06:50:06;2.10;;;1.50;;
19877;SDS011;10101;52.204;9.910;2023-07-24T06:52:34;2.42;;;1.60;;
19877;SDS011;10101;52.204;9.910;2023-07-24T06:55:02;1.87;;;1.57;;
19877;SDS011;10101;52.204;9.910;2023-07-24T06:57:29;2.43;;;1.83;;
19877;SDS011;10101;52.204;9.910;2023-07-24T06:59:55;3.20;;;1.70;;
19877;SDS011;10101;52.204;9.910;2023-07-24T07:02:22;2.45;;;1.67;;
19877;SDS011;10101;52.204;9.910;2023-07-24T07:04:49;1.77;;;1.48;;
19877;SDS011;10101;52.204;9.910;2023-07-24T07:07:16;2.80;;;1.70;;
19877;SDS011;10101;52.204;9.910;2023-07-24T07:09:44;3.40;;;2.00;;
19877;SDS011;10101;52.204;9.910;2023-07-24T07:12:10;3.72;;;1.80;;
19877;SDS011;10101;52.204;9.910;2023-07-24T07:14:37;4.22;;;1.70;;
19877;SDS011;10101;52.204;9.910;2023-07-24T07:17:04;3.60;;;1.90;;
19877;SDS011;10101;52.204;9.910;2023-07-24T07:19:30;2.47;;;1.60;;
19877;SDS011;10101;52.204;9.910;2023-07-24T07:21:57;4.45;;;1.80;;
19877;SDS011;10101;52.204;9.910;2023-07-24T07:24:24;3.05;;;1.70;;
19877;SDS011;10101;52.204;9.910;2023-07-24T07:26:52;4.60;;;1.95;;
19877;SDS011;10101;52.204;9.910;2023-07-24T07:29:19;2.58;;;1.95;;
19877;SDS011;10101;52.204;9.910;2023-07-24T07:31:45;1.53;;;1.43;;
19877;SDS011;10101;52.204;9.910;2023-07-24T07:34:12;3.05;;;1.80;;
19877;SDS011;10101;52.204;9.910;2023-07-24T07:36:39;2.78;;;2.10;;
19877;SDS011;10101;52.204;9.910;2023-07-24T07:39:05;2.43;;;1.57;;
19877;SDS011;10101;52.204;9.910;2023-07-24T07:41:32;3.60;;;1.98;;
19877;SDS011;10101;52.204;9.910;2023-07-24T07:44:00;3.65;;;2.22;;
19877;SDS011;10101;52.204;9.910;2023-07-24T07:46:27;3.00;;;2.20;;
19877;SDS011;10101;52.204;9.910;2023-07-24T07:48:54;3.33;;;2.17;;
19877;SDS011;10101;52.204;9.910;2023-07-24T07:51:21;3.50;;;1.88;;
19877;SDS011;10101;52.204;9.910;2023-07-24T07:53:50;2.73;;;1.90;;
19877;SDS011;10101;52.204;9.910;2023-07-24T07:56:17;3.47;;;2.10;;
19877;SDS011;10101;52.204;9.910;2023-07-24T07:58:44;3.45;;;2.55;;
19877;SDS011;10101;52.204;9.910;2023-07-24T08:01:12;6.07;;;1.85;;
19877;SDS011;10101;52.204;9.910;2023-07-24T08:03:39;3.20;;;1.98;;
19877;SDS011;10101;52.204;9.910;2023-07-24T08:06:06;3.60;;;1.92;;
19877;SDS011;10101;52.204;9.910;2023-07-24T08:08:33;2.70;;;1.80;;
19877;SDS011;10101;52.204;9.910;2023-07-24T08:11:03;3.08;;;1.90;;
19877;SDS011;10101;52.204;9.910;2023-07-24T08:13:31;3.17;;;2.30;;
19877;SDS011;10101;52.204;9.910;2023-07-24T08:15:58;4.22;;;2.10;;
19877;SDS011;10101;52.204;9.910;2023-07-24T08:18:28;4.18;;;2.10;;
19877;SDS011;10101;52.204;9.910;2023-07-24T08:20:55;5.60;;;2.90;;
19877;SDS011;10101;52.204;9.910;2023-07-24T08:23:22;2.53;;;2.10;;
19877;SDS011;10101;52.204;9.910;2023-07-24T08:25:52;3.07;;;1.93;;
19877;SDS011;10101;52.204;9.910;2023-07-24T08:28:19;3.43;;;2.20;;
19877;SDS011;10101;52.204;9.910;2023-07-24T08:30:46;3.40;;;2.07;;
19877;SDS011;10101;52.204;9.910;2023-07-24T08:33:21;4.37;;;1.70;;
19877;SDS011;10101;52.204;9.910;2023-07-24T08:35:58;3.50;;;1.70;;
19877;SDS011;10101;52.204;9.910;2023-07-24T08:38:25;4.00;;;1.60;;
19877;SDS011;10101;52.204;9.910;2023-07-24T08:40:59;2.03;;;1.77;;
19877;SDS011;10101;52.204;9.910;2023-07-24T08:43:26;2.43;;;1.67;;
19877;SDS011;10101;52.204;9.910;2023-07-24T08:45:55;1.97;;;1.70;;
19877;SDS011;10101;52.204;9.910;2023-07-24T08:48:23;3.07;;;1.77;;
19877;SDS011;10101;52.204;9.910;2023-07-24T08:50:51;3.67;;;1.97;;
19877;SDS011;10101;52.204;9.910;2023-07-24T08:53:20;2.38;;;1.58;;
19877;SDS011;10101;52.204;9.910;2023-07-24T08:55:47;2.50;;;1.80;;
19877;SDS011;10101;52.204;9.910;2023-07-24T08:58:15;2.20;;;1.63;;
19877;SDS011;10101;52.204;9.910;2023-07-24T09:00:41;2.63;;;1.73;;
19877;SDS011;10101;52.204;9.910;2023-07-24T09:03:08;2.97;;;1.83;;
19877;SDS011;10101;52.204;9.910;2023-07-24T09:05:35;3.53;;;2.07;;
19877;SDS011;10101;52.204;9.910;2023-07-24T09:08:02;3.73;;;1.50;;
19877;SDS011;10101;52.204;9.910;2023-07-24T09:10:30;2.30;;;1.90;;
19877;SDS011;10101;52.204;9.910;2023-07-24T09:12:57;2.60;;;1.70;;
19877;SDS011;10101;52.204;9.910;2023-07-24T09:15:24;3.33;;;1.70;;
19877;SDS011;10101;52.204;9.910;2023-07-24T09:17:51;3.43;;;2.00;;
19877;SDS011;10101;52.204;9.910;2023-07-24T09:20:19;3.57;;;2.10;;
19877;SDS011;10101;52.204;9.910;2023-07-24T09:22:49;3.00;;;1.97;;
19877;SDS011;10101;52.204;9.910;2023-07-24T09:25:16;3.20;;;2.17;;
19877;SDS011;10101;52.204;9.910;2023-07-24T09:27:44;1.90;;;1.60;;
19877;SDS011;10101;52.204;9.910;2023-07-24T09:30:11;2.60;;;2.00;;
19877;SDS011;10101;52.204;9.910;2023-07-24T09:32:39;2.70;;;1.80;;
19877;SDS011;10101;52.204;9.910;2023-07-24T09:35:15;2.57;;;2.10;;
19877;SDS011;10101;52.204;9.910;2023-07-24T09:37:43;2.87;;;2.00;;
19877;SDS011;10101;52.204;9.910;2023-07-24T09:40:11;2.17;;;1.95;;
19877;SDS011;10101;52.204;9.910;2023-07-24T09:42:40;2.45;;;1.85;;
19877;SDS011;10101;52.204;9.910;2023-07-24T09:45:09;2.63;;;1.93;;
19877;SDS011;10101;52.204;9.910;2023-07-24T09:47:36;4.00;;;1.80;;
19877;SDS011;10101;52.204;9.910;2023-07-24T09:50:05;2.03;;;1.67;;
19877;SDS011;10101;52.204;9.910;2023-07-24T09:52:33;2.33;;;1.77;;
19877;SDS011;10101;52.204;9.910;2023-07-24T09:55:08;1.85;;;1.63;;
19877;SDS011;10101;52.204;9.910;2023-07-24T09:57:38;2.88;;;1.95;;
19877;SDS011;10101;52.204;9.910;2023-07-24T10:00:06;5.68;;;1.85;;
19877;SDS011;10101;52.204;9.910;2023-07-24T10:02:35;1.88;;;1.60;;
19877;SDS011;10101;52.204;9.910;2023-07-24T10:05:03;2.75;;;1.60;;
19877;SDS011;10101;52.204;9.910;2023-07-24T10:07:30;1.50;;;1.30;;
19877;SDS011;10101;52.204;9.910;2023-07-24T10:09:58;1.95;;;1.58;;
19877;SDS011;10101;52.204;9.910;2023-07-24T10:12:25;2.15;;;1.70;;
19877;SDS011;10101;52.204;9.910;2023-07-24T10:14:55;1.67;;;1.40;;
19877;SDS011;10101;52.204;9.910;2023-07-24T10:17:35;3.13;;;1.70;;
19877;SDS011;10101;52.204;9.910;2023-07-24T10:20:03;1.73;;;1.52;;
19877;SDS011;10101;52.204;9.910;2023-07-24T10:22:30;1.95;;;1.40;;
19877;SDS011;10101;52.204;9.910;2023-07-24T10:24:58;2.22;;;1.80;;
19877;SDS011;10101;52.204;9.910;2023-07-24T10:27:24;1.63;;;1.52;;
19877;SDS011;10101;52.204;9.910;2023-07-24T10:29:59;2.47;;;1.80;;
19877;SDS011;10101;52.204;9.910;2023-07-24T10:32:27;2.67;;;1.70;;
19877;SDS011;10101;52.204;9.910;2023-07-24T10:34:59;2.13;;;1.90;;
19877;SDS011;10101;52.204;9.910;2023-07-24T10:37:33;2.80;;;1.90;;
19877;SDS011;10101;52.204;9.910;2023-07-24T10:40:00;4.18;;;1.77;;
19877;SDS011;10101;52.204;9.910;2023-07-24T10:42:29;2.10;;;1.65;;
19877;SDS011;10101;52.204;9.910;2023-07-24T10:45:03;2.20;;;1.98;;
19877;SDS011;10101;52.204;9.910;2023-07-24T10:47:31;2.40;;;2.08;;
19877;SDS011;10101;52.204;9.910;2023-07-24T10:49:59;2.60;;;1.92;;
19877;SDS011;10101;52.204;9.910;2023-07-24T10:52:27;2.67;;;1.88;;
19877;SDS011;10101;52.204;9.910;2023-07-24T10:54:55;2.55;;;1.80;;
19877;SDS011;10101;52.204;9.910;2023-07-24T10:57:24;2.95;;;2.05;;
19877;SDS011;10101;52.204;9.910;2023-07-24T10:59:52;2.55;;;1.90;;
19877;SDS011;10101;52.204;9.910;2023-07-24T11:02:19;2.47;;;2.10;;
19877;SDS011;10101;52.204;9.910;2023-07-24T11:04:46;4.80;;;1.95;;
19877;SDS011;10101;52.204;9.910;2023-07-24T11:07:14;3.35;;;2.20;;
19877;SDS011;10101;52.204;9.910;2023-07-24T11:09:41;3.50;;;2.33;;
19877;SDS011;10101;52.204;9.910;2023-07-24T11:12:09;2.70;;;2.22;;
19877;SDS011;10101;52.204;9.910;2023-07-24T11:14:45;3.35;;;2.22;;
19877;SDS011;10101;52.204;9.910;2023-07-24T11:17:13;3.10;;;2.00;;
19877;SDS011;10101;52.204;9.910;2023-07-24T11:19:40;3.25;;;2.25;;
19877;SDS011;10101;52.204;9.910;2023-07-24T11:22:06;2.50;;;2.10;;
19877;SDS011;10101;52.204;9.910;2023-07-24T11:24:36;4.47;;;2.50;;
19877;SDS011;10101;52.204;9.910;2023-07-24T11:27:10;2.75;;;2.10;;
19877;SDS011;10101;52.204;9.910;2023-07-24T11:29:38;3.53;;;2.35;;
19877;SDS011;10101;52.204;9.910;2023-07-24T11:32:05;3.30;;;2.22;;
19877;SDS011;10101;52.204;9.910;2023-07-24T11:34:32;2.53;;;1.90;;
19877;SDS011;10101;52.204;9.910;2023-07-24T11:37:00;5.22;;;2.00;;
19877;SDS011;10101;52.204;9.910;2023-07-24T11:39:27;3.88;;;2.00;;
19877;SDS011;10101;52.204;9.910;2023-07-24T11:41:56;2.53;;;2.28;;
19877;SDS011;10101;52.204;9.910;2023-07-24T11:44:25;2.42;;;2.03;;
19877;SDS011;10101;52.204;9.910;2023-07-24T11:46:59;3.03;;;2.10;;
19877;SDS011;10101;52.204;9.910;2023-07-24T11:49:27;2.55;;;1.85;;
19877;SDS011;10101;52.204;9.910;2023-07-24T11:51:59;2.58;;;2.05;;
19877;SDS011;10101;52.204;9.910;2023-07-24T11:54:26;3.35;;;2.03;;
19877;SDS011;10101;52.204;9.910;2023-07-24T11:56:53;2.83;;;2.10;;
19877;SDS011;10101;52.204;9.910;2023-07-24T11:59:21;2.72;;;2.10;;
19877;SDS011;10101;52.204;9.910;2023-07-24T12:01:48;3.53;;;2.35;;
19877;SDS011;10101;52.204;9.910;2023-07-24T12:04:15;3.17;;;2.15;;
19877;SDS011;10101;52.204;9.910;2023-07-24T12:06:42;2.30;;;2.10;;
19877;SDS011;10101;52.204;9.910;2023-07-24T12:09:10;2.72;;;2.15;;
19877;SDS011;10101;52.204;9.910;2023-07-24T12:11:40;2.88;;;2.58;;
19877;SDS011;10101;52.204;9.910;2023-07-24T12:14:07;4.85;;;2.30;;
19877;SDS011;10101;52.204;9.910;2023-07-24T12:16:35;2.90;;;2.10;;
19877;SDS011;10101;52.204;9.910;2023-07-24T12:19:02;3.88;;;2.80;;
19877;SDS011;10101;52.204;9.910;2023-07-24T12:21:29;2.38;;;2.08;;
19877;SDS011;10101;52.204;9.910;2023-07-24T12:23:55;4.60;;;2.40;;
19877;SDS011;10101;52.204;9.910;2023-07-24T12:26:22;2.90;;;2.40;;
19877;SDS011;10101;52.204;9.910;2023-07-24T12:28:50;2.97;;;2.30;;
19877;SDS011;10101;52.204;9.910;2023-07-24T12:31:17;3.65;;;2.53;;
19877;SDS011;10101;52.204;9.910;2023-07-24T12:33:45;2.83;;;2.38;;
19877;SDS011;10101;52.204;9.910;2023-07-24T12:36:12;3.03;;;2.60;;
19877;SDS011;10101;52.204;9.910;2023-07-24T12:38:38;3.65;;;2.88;;
19877;SDS011;10101;52.204;9.910;2023-07-24T12:41:05;3.10;;;2.72;;
19877;SDS011;10101;52.204;9.910;2023-07-24T12:43:32;4.57;;;2.67;;
19877;SDS011;10101;52.204;9.910;2023-07-24T12:45:58;2.95;;;2.53;;
19877;SDS011;10101;52.204;9.910;2023-07-24T12:48:25;3.47;;;2.92;;
19877;SDS011;10101;52.204;9.910;2023-07-24T12:50:53;5.25;;;2.55;;
19877;SDS011;10101;52.204;9.910;2023-07-24T12:53:22;2.60;;;2.40;;
19877;SDS011;10101;52.204;9.910;2023-07-24T12:55:49;2.83;;;2.53;;
19877;SDS011;10101;52.204;9.910;2023-07-24T12:58:16;3.30;;;2.55;;
19877;SDS011;10101;52.204;9.910;2023-07-24T13:00:42;3.53;;;2.72;;
19877;SDS011;10101;52.204;9.910;2023-07-24T13:03:09;5.32;;;2.50;;
19877;SDS011;10101;52.204;9.910;2023-07-24T13:05:36;5.47;;;2.50;;
19877;SDS011;10101;52.204;9.910;2023-07-24T13:08:05;3.75;;;2.78;;
19877;SDS011;10101;52.204;9.910;2023-07-24T13:10:31;2.90;;;2.40;;
19877;SDS011;10101;52.204;9.910;2023-07-24T13:12:58;3.72;;;2.45;;
19877;SDS011;10101;52.204;9.910;2023-07-24T13:15:26;2.83;;;2.30;;
19877;SDS011;10101;52.204;9.910;2023-07-24T13:17:54;3.60;;;2.42;;
19877;SDS011;10101;52.204;9.910;2023-07-24T13:20:21;2.80;;;2.00;;
19877;SDS011;10101;52.204;9.910;2023-07-24T13:22:48;2.47;;;2.10;;
19877;SDS011;10101;52.204;9.910;2023-07-24T13:25:16;2.55;;;2.35;;
19877;SDS011;10101;52.204;9.910;2023-07-24T13:27:43;2.20;;;1.98;;
19877;SDS011;10101;52.204;9.910;2023-07-24T13:30:10;3.20;;;2.05;;
19877;SDS011;10101;52.204;9.910;2023-07-24T13:32:37;2.20;;;1.77;;
19877;SDS011;10101;52.204;9.910;2023-07-24T13:35:04;2.00;;;1.80;;
19877;SDS011;10101;52.204;9.910;2023-07-24T13:37:31;2.20;;;2.00;;
19877;SDS011;10101;52.204;9.910;2023-07-24T13:39:58;2.65;;;2.15;;
19877;SDS011;10101;52.204;9.910;2023-07-24T13:42:26;2.60;;;2.20;;
19877;SDS011;10101;52.204;9.910;2023-07-24T13:44:52;2.60;;;2.20;;
19877;SDS011;10101;52.204;9.910;2023-07-24T13:47:19;5.78;;;2.50;;
19877;SDS011;10101;52.204;9.910;2023-07-24T13:49:46;2.38;;;2.00;;
19877;SDS011;10101;52.204;9.910;2023-07-24T13:52:13;3.17;;;2.33;;
19877;SDS011;10101;52.204;9.910;2023-07-24T13:54:39;3.30;;;2.30;;
19877;SDS011;10101;52.204;9.910;2023-07-24T13:57:06;5.55;;;2.42;;
19877;SDS011;10101;52.204;9.910;2023-07-24T13:59:35;4.15;;;2.50;;
19877;SDS011;10101;52.204;9.910;2023-07-24T14:02:03;3.83;;;2.80;;
19877;SDS011;10101;52.204;9.910;2023-07-24T14:04:30;2.88;;;2.33;;
19877;SDS011;10101;52.204;9.910;2023-07-24T14:06:57;2.83;;;2.28;;
19877;SDS011;10101;52.204;9.910;2023-07-24T14:09:24;2.50;;;2.25;;
19877;SDS011;10101;52.204;9.910;2023-07-24T14:11:51;3.40;;;2.30;;
19877;SDS011;10101;52.204;9.910;2023-07-24T14:14:17;4.47;;;2.55;;
19877;SDS011;10101;52.204;9.910;2023-07-24T14:16:46;3.40;;;2.50;;
19877;SDS011;10101;52.204;9.910;2023-07-24T14:19:13;3.15;;;2.58;;
19877;SDS011;10101;52.204;9.910;2023-07-24T14:21:40;3.38;;;2.50;;
19877;SDS011;10101;52.204;9.910;2023-07-24T14:24:07;9.23;;;1.95;;
19877;SDS011;10101;52.204;9.910;2023-07-24T14:26:34;2.53;;;1.10;;
19877;SDS011;10101;52.204;9.910;2023-07-24T14:29:02;5.30;;;1.50;;
19877;SDS011;10101;52.204;9.910;2023-07-24T14:31:29;7.50;;;1.90;;
19877;SDS011;10101;52.204;9.910;2023-07-24T14:33:57;2.53;;;1.30;;
19877;SDS011;10101;52.204;9.910;2023-07-24T14:36:23;1.97;;;1.50;;
19877;SDS011;10101;52.204;9.910;2023-07-24T14:38:52;2.03;;;1.50;;
19877;SDS011;10101;52.204;9.910;2023-07-24T14:41:19;4.13;;;1.93;;
19877;SDS011;10101;52.204;9.910;2023-07-24T14:43:46;2.17;;;1.80;;
19877;SDS011;10101;52.204;9.910;2023-07-24T14:46:13;3.97;;;1.70;;
19877;SDS011;10101;52.204;9.910;2023-07-24T14:48:39;3.90;;;2.27;;